White Dolphin — 3EVO6 — position and weather

sailwx.info

Track history (hours):
 
Tides and Currents Weather Stations Pressure Air Temp Water Temp Dewpoint Dewpoint Depression Visibility Wind Speed Wind Dir Waves Ship Positions

White Dolphin

Last reported at 2018-Jun-24 00:59 UTC. Time now 2018-Jun-25 05:56 UTC.
Position N 33°50' E 135°04'.

Length 135 m; draft 6.4 m.

Type: Cargo ship. MMSI: 351817000.

Date/timePositionNaut miles runAvg speedWind from/ knotsBaromVisibWave heightAir tempDewpointWater temp
2018-Jun-24 00:59N 33°50' E 135°04'511.2
2018-Jun-24 00:30N 33°55' E 135°01'611.5
2018-Jun-24 00:00N 34°00' E 135°01'611.6
2018-Jun-23 23:30N 34°06' E 134°59'611.4
2018-Jun-23 23:00N 34°11' E 134°58'611.2
2018-Jun-23 22:30N 34°17' E 134°59'611.3
2018-Jun-23 22:00N 34°23' E 134°60'611.2
2018-Jun-23 21:30N 34°27' E 135°03'510.7
2018-Jun-23 21:00N 34°33' E 135°05'5 9.2
2018-Jun-23 20:30N 34°37' E 135°02'5 8.6
2018-Jun-23 19:57N 34°36' E 134°56'4 9.5
2018-Jun-23 19:30N 34°34' E 134°51'610.8
2018-Jun-23 19:00N 34°32' E 134°45'511.1
2018-Jun-23 18:30N 34°30' E 134°39'611.4
2018-Jun-23 18:00N 34°28' E 134°33'611.1
2018-Jun-23 17:30N 34°26' E 134°26'  
2018-Jun-16 13:36N 34°24' E 134°15'313.0
2018-Jun-16 13:21N 34°24' E 134°19'412.6
2018-Jun-16 13:00N 34°26' E 134°24'612.3
2018-Jun-16 12:30N 34°28' E 134°31'612.7
2018-Jun-16 12:00N 34°30' E 134°38'613.1
2018-Jun-16 11:30N 34°33' E 134°45'714.6
2018-Jun-16 11:00N 34°36' E 134°54'713.2
2018-Jun-16 10:30N 34°37' E 135°01'510.7
2018-Jun-16 10:00N 34°33' E 135°05'612.6
2018-Jun-16 09:30N 34°27' E 135°03'612.1
2018-Jun-16 09:01N 34°21' E 135°01'611.5
2018-Jun-16 08:30N 34°15' E 134°59'5 9.9
2018-Jun-16 08:00N 34°11' E 134°60'611.3
2018-Jun-16 07:30N 34°05' E 135°00'611.6
2018-Jun-16 06:58N 33°59' E 135°01'511.5
2018-Jun-16 06:30N 33°53' E 135°02'24510.0
2018-Jun-15 06:03N 35°09' E 139°44'212.2
2018-Jun-15 05:54N 35°11' E 139°45'511.3
2018-Jun-15 05:30N 35°15' E 139°46'611.5
2018-Jun-15 05:00N 35°20' E 139°42'611.0
2018-Jun-15 04:30N 35°25' E 139°45'612.3
2018-Jun-15 04:00N 35°29' E 139°50'612.2
2018-Jun-15 03:29N 35°34' E 139°55'6 1.0
2018-Jun-14 22:00N 35°40' E 139°57'  
Track history (hours):
 
Tides and Currents Weather Stations Pressure Air Temp Water Temp Dewpoint Dewpoint Depression Visibility Wind Speed Wind Dir Waves Ship Positions

White Dolphin

Last reported at 2018-Jun-24 00:59 UTC. Time now 2018-Jun-25 05:56 UTC.
Position N 33°50' E 135°04'.

Length 135 m; draft 6.4 m.

Type: Cargo ship. MMSI: 351817000.

Date/timePositionNaut miles runAvg speedWind from/ knotsBaromVisibWave heightAir tempDewpointWater temp
2018-Jun-24 00:59N 33°50' E 135°04'511.2
2018-Jun-24 00:30N 33°55' E 135°01'611.5
2018-Jun-24 00:00N 34°00' E 135°01'611.6
2018-Jun-23 23:30N 34°06' E 134°59'611.4
2018-Jun-23 23:00N 34°11' E 134°58'611.2
2018-Jun-23 22:30N 34°17' E 134°59'611.3
2018-Jun-23 22:00N 34°23' E 134°60'611.2
2018-Jun-23 21:30N 34°27' E 135°03'510.7
2018-Jun-23 21:00N 34°33' E 135°05'5 9.2
2018-Jun-23 20:30N 34°37' E 135°02'5 8.6
2018-Jun-23 19:57N 34°36' E 134°56'4 9.5
2018-Jun-23 19:30N 34°34' E 134°51'610.8
2018-Jun-23 19:00N 34°32' E 134°45'511.1
2018-Jun-23 18:30N 34°30' E 134°39'611.4
2018-Jun-23 18:00N 34°28' E 134°33'611.1
2018-Jun-23 17:30N 34°26' E 134°26'  
2018-Jun-16 13:36N 34°24' E 134°15'313.0
2018-Jun-16 13:21N 34°24' E 134°19'412.6
2018-Jun-16 13:00N 34°26' E 134°24'612.3
2018-Jun-16 12:30N 34°28' E 134°31'612.7
2018-Jun-16 12:00N 34°30' E 134°38'613.1
2018-Jun-16 11:30N 34°33' E 134°45'714.6
2018-Jun-16 11:00N 34°36' E 134°54'713.2
2018-Jun-16 10:30N 34°37' E 135°01'510.7
2018-Jun-16 10:00N 34°33' E 135°05'612.6
2018-Jun-16 09:30N 34°27' E 135°03'612.1
2018-Jun-16 09:01N 34°21' E 135°01'611.5
2018-Jun-16 08:30N 34°15' E 134°59'5 9.9
2018-Jun-16 08:00N 34°11' E 134°60'611.3
2018-Jun-16 07:30N 34°05' E 135°00'611.6
2018-Jun-16 06:58N 33°59' E 135°01'511.5
2018-Jun-16 06:30N 33°53' E 135°02'24510.0
2018-Jun-15 06:03N 35°09' E 139°44'212.2
2018-Jun-15 05:54N 35°11' E 139°45'511.3
2018-Jun-15 05:30N 35°15' E 139°46'611.5
2018-Jun-15 05:00N 35°20' E 139°42'611.0
2018-Jun-15 04:30N 35°25' E 139°45'612.3
2018-Jun-15 04:00N 35°29' E 139°50'612.2
2018-Jun-15 03:29N 35°34' E 139°55'6 1.0
2018-Jun-14 22:00N 35°40' E 139°57'  

Dump ship's entire track history